createdAt,value
2023-04-14T00:00:03.550Z,95809.47
2023-04-14T00:02:40.492Z,95802.34
2023-04-14T00:05:09.336Z,95801.50
2023-04-14T00:07:38.668Z,95798.03
2023-04-14T00:10:07.476Z,95791.38
2023-04-14T00:12:35.616Z,95790.41
2023-04-14T00:15:03.526Z,95790.50
2023-04-14T00:17:32.432Z,95785.63
2023-04-14T00:20:00.387Z,95790.63
2023-04-14T00:22:28.230Z,95789.09
2023-04-14T00:24:57.588Z,95787.53
2023-04-14T00:27:25.653Z,95785.84
2023-04-14T00:29:53.517Z,95787.97
2023-04-14T00:32:21.542Z,95798.34
2023-04-14T00:34:49.583Z,95793.44
2023-04-14T00:37:17.587Z,95792.97
2023-04-14T00:39:45.613Z,95795.56
2023-04-14T00:42:14.832Z,95788.97
2023-04-14T00:44:42.631Z,95786.34
2023-04-14T00:47:10.609Z,95793.06
2023-04-14T00:49:38.799Z,95795.91
2023-04-14T00:52:07.103Z,95795.06
2023-04-14T00:54:36.914Z,95797.66
2023-04-14T00:57:07.390Z,95795.06
2023-04-14T00:59:38.218Z,95803.97
2023-04-14T01:02:06.467Z,95807.31
2023-04-14T01:04:52.068Z,95805.66
2023-04-14T01:07:23.341Z,95804.31
2023-04-14T01:09:51.760Z,95803.81
2023-04-14T01:12:29.665Z,95806.00
2023-04-14T01:15:12.022Z,95807.78
2023-04-14T01:17:46.923Z,95808.81
2023-04-14T01:20:28.281Z,95810.75
2023-04-14T01:23:03.061Z,95807.91
2023-04-14T01:26:17.956Z,95818.81
2023-04-14T01:29:25.773Z,95821.22
2023-04-14T01:32:03.030Z,95820.59
2023-04-14T01:34:35.137Z,95822.16
2023-04-14T01:37:07.716Z,95826.91
2023-04-14T01:39:39.681Z,95823.78
2023-04-14T01:42:10.153Z,95828.28
2023-04-14T01:44:40.425Z,95832.22
2023-04-14T01:47:13.709Z,95834.28
2023-04-14T01:49:43.700Z,95832.63
2023-04-14T01:52:14.359Z,95834.84
2023-04-14T01:54:44.249Z,95833.19
2023-04-14T01:57:15.708Z,95841.47
2023-04-14T01:59:44.933Z,95837.28
2023-04-14T02:02:16.365Z,95844.72
2023-04-14T02:04:45.697Z,95842.75
2023-04-14T02:07:14.369Z,95843.81
2023-04-14T02:09:44.352Z,95848.63
2023-04-14T02:12:13.401Z,95849.91
2023-04-14T02:14:43.273Z,95844.97
2023-04-14T02:17:12.525Z,95842.91
2023-04-14T02:19:45.007Z,95845.72
2023-04-14T02:22:13.142Z,95846.56
2023-04-14T02:24:41.373Z,95841.00
2023-04-14T02:27:17.203Z,95847.38
2023-04-14T02:29:53.107Z,95849.25
2023-04-14T02:32:23.439Z,95854.63
2023-04-14T02:34:56.676Z,95843.72
2023-04-14T02:37:28.371Z,95848.44
2023-04-14T02:40:02.533Z,95846.88
2023-04-14T02:42:35.611Z,95846.13
2023-04-14T02:45:06.850Z,95843.31
2023-04-14T02:47:39.160Z,95844.03
2023-04-14T02:50:13.732Z,95855.72
2023-04-14T02:52:51.352Z,95853.31
2023-04-14T02:55:22.428Z,95853.63
2023-04-14T02:57:52.989Z,95853.84
2023-04-14T03:00:22.746Z,95855.59
2023-04-14T03:02:54.475Z,95860.50
2023-04-14T03:05:25.594Z,95859.69
2023-04-14T03:08:02.286Z,95857.44
2023-04-14T03:10:30.411Z,95852.75
2023-04-14T03:12:59.678Z,95856.91
2023-04-14T03:15:28.097Z,95861.31
2023-04-14T03:17:57.758Z,95857.22
2023-04-14T03:20:29.985Z,95859.59
2023-04-14T03:23:01.942Z,95850.81
2023-04-14T03:25:36.600Z,95849.53
2023-04-14T03:28:10.679Z,95860.09
2023-04-14T03:30:44.404Z,95856.63
2023-04-14T03:33:18.118Z,95864.03
2023-04-14T03:35:48.250Z,95860.03
2023-04-14T03:38:17.304Z,95863.88
2023-04-14T03:40:48.399Z,95858.47
2023-04-14T03:43:22.796Z,95859.94
2023-04-14T03:45:58.136Z,95854.06
2023-04-14T03:48:29.873Z,95848.66
2023-04-14T03:51:02.249Z,95849.97
2023-04-14T03:53:31.432Z,95852.78
2023-04-14T03:56:00.944Z,95854.66
2023-04-14T03:58:30.559Z,95853.38
2023-04-14T04:00:59.091Z,95862.16
2023-04-14T04:03:29.137Z,95860.66
2023-04-14T04:06:00.693Z,95856.75
2023-04-14T04:08:29.796Z,95857.72
2023-04-14T04:10:59.112Z,95863.09
2023-04-14T04:13:28.786Z,95870.00
2023-04-14T04:15:57.300Z,95869.56
2023-04-14T04:18:28.087Z,95871.41
2023-04-14T04:21:00.868Z,95870.75
2023-04-14T04:23:33.955Z,95873.84
2023-04-14T04:26:02.096Z,95873.00
2023-04-14T04:28:38.132Z,95865.84
2023-04-14T04:31:07.224Z,95869.47
2023-04-14T04:33:36.069Z,95871.72
2023-04-14T04:36:06.599Z,95866.50
2023-04-14T04:38:40.623Z,95869.19
2023-04-14T04:41:08.601Z,95877.41
2023-04-14T04:43:37.606Z,95879.16
2023-04-14T04:46:25.881Z,95874.41
2023-04-14T04:48:56.392Z,95872.63
2023-04-14T04:51:28.805Z,95879.56
2023-04-14T04:53:58.267Z,95883.06
2023-04-14T04:56:26.232Z,95891.03
2023-04-14T04:58:54.418Z,95895.50
2023-04-14T05:01:22.411Z,95889.44
2023-04-14T05:03:50.495Z,95888.50
2023-04-14T05:06:18.452Z,95892.13
2023-04-14T05:08:47.804Z,95890.53
2023-04-14T05:11:15.677Z,95893.91
2023-04-14T05:13:43.640Z,95897.63
2023-04-14T05:16:13.680Z,95899.13
2023-04-14T05:18:42.971Z,95900.78
2023-04-14T05:21:13.690Z,95902.28
2023-04-14T05:23:43.675Z,95896.78
2023-04-14T05:26:38.871Z,95896.72
2023-04-14T05:29:02.224Z,95893.81
2023-04-14T05:31:30.458Z,95898.00
2023-04-14T05:33:58.585Z,95897.81
2023-04-14T05:36:27.429Z,95895.75
2023-04-14T05:38:55.360Z,95900.69
2023-04-14T05:41:24.651Z,95899.66
2023-04-14T05:43:52.522Z,95902.75
2023-04-14T05:46:20.739Z,95910.22
2023-04-14T05:48:48.525Z,95906.38
2023-04-14T05:51:16.684Z,95912.69
2023-04-14T05:53:44.530Z,95914.84
2023-04-14T05:56:12.508Z,95918.00
2023-04-14T05:58:41.724Z,95916.41
2023-04-14T06:01:09.601Z,95924.28
2023-04-14T06:03:40.073Z,95923.69
2023-04-14T06:06:08.784Z,95916.97
2023-04-14T06:08:36.668Z,95923.19
2023-04-14T06:11:05.290Z,95917.31
2023-04-14T06:13:34.936Z,95922.69
2023-04-14T06:16:05.939Z,95923.78
2023-04-14T06:18:33.991Z,95921.47
2023-04-14T06:21:02.971Z,95920.66
2023-04-14T06:23:31.615Z,95917.34
2023-04-14T06:25:59.580Z,95918.69
2023-04-14T06:28:27.466Z,95921.50
2023-04-14T06:30:55.434Z,95916.50
2023-04-14T06:33:24.933Z,95915.03
2023-04-14T06:35:52.849Z,95917.84
2023-04-14T06:38:20.630Z,95911.13
2023-04-14T06:40:48.613Z,95912.28
2023-04-14T06:43:17.809Z,95913.31
2023-04-14T06:45:45.747Z,95912.75
2023-04-14T06:48:13.984Z,95915.59
2023-04-14T06:50:44.300Z,95913.34
2023-04-14T06:53:12.499Z,95912.59
2023-04-14T06:55:42.195Z,95909.53
2023-04-14T06:58:10.083Z,95901.22
2023-04-14T07:00:38.086Z,95902.13
2023-04-14T07:03:06.444Z,95898.00
2023-04-14T07:05:34.428Z,95892.06
2023-04-14T07:08:03.786Z,95895.84
2023-04-14T07:10:31.766Z,95889.06
2023-04-14T07:12:59.692Z,95883.84
2023-04-14T07:15:27.623Z,95878.16
2023-04-14T07:17:57.317Z,95875.56
2023-04-14T07:20:27.186Z,95875.13
2023-04-14T07:22:55.565Z,95873.34
2023-04-14T07:25:24.883Z,95874.63
2023-04-14T07:28:02.740Z,95867.94
2023-04-14T07:30:31.918Z,95863.06
2023-04-14T07:33:02.271Z,95865.69
2023-04-14T07:35:30.299Z,95863.16
2023-04-14T07:37:58.202Z,95860.88
2023-04-14T07:40:27.511Z,95863.16
2023-04-14T07:42:55.498Z,95867.44
2023-04-14T07:45:23.637Z,95868.84
2023-04-14T07:47:52.199Z,95858.53
2023-04-14T07:50:20.451Z,95855.44
2023-04-14T07:52:48.360Z,95865.22
2023-04-14T07:55:16.597Z,95861.59
2023-04-14T07:57:45.944Z,95859.31
2023-04-14T08:00:15.543Z,95861.19
2023-04-14T08:02:43.852Z,95864.41
2023-04-14T08:05:12.083Z,95860.28
2023-04-14T08:07:40.103Z,95869.63
2023-04-14T08:10:08.810Z,95870.66
2023-04-14T08:12:36.834Z,95861.78
2023-04-14T08:15:07.004Z,95864.38
2023-04-14T08:17:34.918Z,95870.47
2023-04-14T08:20:03.024Z,95866.69
2023-04-14T08:22:30.999Z,95872.78
2023-04-14T08:24:58.878Z,95865.59
2023-04-14T08:27:26.775Z,95870.16
2023-04-14T08:29:54.800Z,95874.06
2023-04-14T08:32:24.269Z,95878.34
2023-04-14T08:35:39.581Z,95871.47
2023-04-14T08:37:44.350Z,95875.44
2023-04-14T08:40:13.212Z,95879.63
2023-04-14T08:42:41.091Z,95876.22
2023-04-14T08:45:09.654Z,95872.03
2023-04-14T08:47:41.335Z,95876.09
2023-04-14T08:50:16.619Z,95871.56
2023-04-14T08:52:46.924Z,95870.16
2023-04-14T08:55:16.131Z,95862.84
2023-04-14T08:57:46.459Z,95861.19
2023-04-14T09:00:15.908Z,95857.34
2023-04-14T09:02:46.988Z,95863.91
2023-04-14T09:05:15.463Z,95868.19
2023-04-14T09:07:43.743Z,95863.34
2023-04-14T09:10:12.844Z,95864.06
2023-04-14T09:12:41.930Z,95857.94
2023-04-14T09:15:11.402Z,95855.66
2023-04-14T09:17:39.419Z,95853.13
2023-04-14T09:20:38.783Z,95858.13
2023-04-14T09:22:57.806Z,95860.00
2023-04-14T09:25:26.252Z,95859.69
2023-04-14T09:27:54.312Z,95857.47
2023-04-14T09:30:22.527Z,95866.13
2023-04-14T09:32:53.582Z,95855.41
2023-04-14T09:35:23.077Z,95865.72
2023-04-14T09:37:51.068Z,95872.53
2023-04-14T09:40:32.006Z,95857.53
2023-04-14T09:43:00.475Z,95865.03
2023-04-14T09:45:42.567Z,95848.38
2023-04-14T09:48:12.879Z,95857.13
2023-04-14T09:51:06.668Z,95858.41
2023-04-14T09:53:35.999Z,95855.59
2023-04-14T09:56:06.258Z,95859.06
2023-04-14T09:58:35.879Z,95855.88
2023-04-14T10:01:04.580Z,95852.25
2023-04-14T10:03:39.449Z,95842.56
2023-04-14T10:06:10.708Z,95849.50
2023-04-14T10:08:41.061Z,95847.41
2023-04-14T10:11:17.171Z,95838.38
2023-04-14T10:13:45.658Z,95835.72
2023-04-14T10:16:13.649Z,95839.63
2023-04-14T10:18:41.546Z,95828.22
2023-04-14T10:21:11.423Z,95830.75
2023-04-14T10:23:41.296Z,95836.44
2023-04-14T10:26:09.916Z,95832.13
2023-04-14T10:28:40.835Z,95831.31
2023-04-14T10:31:12.346Z,95830.31
2023-04-14T10:33:42.062Z,95822.56
2023-04-14T10:36:11.581Z,95818.94
2023-04-14T10:38:44.087Z,95819.75
2023-04-14T10:41:12.943Z,95809.75
2023-04-14T10:43:41.741Z,95809.75
2023-04-14T10:46:11.076Z,95808.94
2023-04-14T10:48:40.401Z,95804.34
2023-04-14T10:51:11.816Z,95799.16
2023-04-14T10:53:45.833Z,95797.66
2023-04-14T10:56:14.302Z,95797.50
2023-04-14T10:58:42.161Z,95790.13
2023-04-14T11:01:24.299Z,95788.31
2023-04-14T11:03:52.626Z,95782.06
2023-04-14T11:06:57.171Z,95781.50
2023-04-14T11:09:34.212Z,95781.75
2023-04-14T11:12:07.335Z,95771.66
2023-04-14T11:14:36.593Z,95771.47
2023-04-14T11:17:06.393Z,95773.28
2023-04-14T11:19:34.498Z,95766.31
2023-04-14T11:22:03.801Z,95757.44
2023-04-14T11:24:32.468Z,95757.03
2023-04-14T11:27:00.634Z,95756.44
2023-04-14T11:29:28.492Z,95763.56
2023-04-14T11:32:04.090Z,95755.94
2023-04-14T11:34:32.768Z,95761.91
2023-04-14T11:37:05.038Z,95757.72
2023-04-14T11:39:35.259Z,95753.13
2023-04-14T11:42:03.538Z,95754.81
2023-04-14T11:44:31.836Z,95752.56
2023-04-14T11:46:59.791Z,95753.13
2023-04-14T11:49:36.591Z,95754.19
2023-04-14T11:52:07.767Z,95744.06
2023-04-14T11:54:37.141Z,95745.94
2023-04-14T11:57:10.976Z,95736.03
2023-04-14T11:59:43.591Z,95728.63
2023-04-14T12:02:18.235Z,95732.22
2023-04-14T12:04:47.230Z,95736.59
2023-04-14T12:07:18.125Z,95735.16
2023-04-14T12:09:48.870Z,95740.34
2023-04-14T12:12:18.105Z,95732.47
2023-04-14T12:14:47.295Z,95730.25
2023-04-14T12:17:16.402Z,95728.63
2023-04-14T12:19:45.638Z,95717.81
2023-04-14T12:22:13.475Z,95718.81
2023-04-14T12:24:44.135Z,95722.38
2023-04-14T12:27:12.811Z,95717.78
2023-04-14T12:29:44.784Z,95715.97
2023-04-14T12:32:13.142Z,95707.28
2023-04-14T12:34:41.284Z,95699.88
2023-04-14T12:37:10.819Z,95689.75
2023-04-14T12:39:57.578Z,95678.69
2023-04-14T12:42:25.957Z,95685.69
2023-04-14T12:44:58.900Z,95684.31
2023-04-14T12:47:31.424Z,95683.16
2023-04-14T12:50:01.404Z,95685.69
2023-04-14T12:52:37.035Z,95678.56
2023-04-14T12:55:08.925Z,95674.31
2023-04-14T12:57:37.127Z,95673.63
2023-04-14T13:00:05.833Z,95675.84
2023-04-14T13:02:35.580Z,95666.91
2023-04-14T13:05:05.027Z,95662.38
2023-04-14T13:07:33.097Z,95659.19
2023-04-14T13:10:01.291Z,95659.03
2023-04-14T13:12:30.677Z,95671.00
2023-04-14T13:14:58.540Z,95665.94
2023-04-14T13:17:26.751Z,95658.59
2023-04-14T13:19:56.936Z,95647.41
2023-04-14T13:22:25.542Z,95640.75
2023-04-14T13:24:53.815Z,95641.28
2023-04-14T13:27:21.775Z,95642.78
2023-04-14T13:29:51.170Z,95629.84
2023-04-14T13:32:19.477Z,95633.59
2023-04-14T13:34:47.856Z,95619.75
2023-04-14T13:37:16.740Z,95620.41
2023-04-14T13:39:44.965Z,95615.19
2023-04-14T13:42:13.081Z,95615.53
2023-04-14T13:44:41.505Z,95615.47
2023-04-14T13:47:10.926Z,95614.72
2023-04-14T13:49:38.949Z,95603.44
2023-04-14T13:52:07.697Z,95605.41
2023-04-14T13:54:36.344Z,95600.78
2023-04-14T13:57:04.445Z,95593.53
2023-04-14T13:59:33.121Z,95600.09
2023-04-14T14:02:01.338Z,95600.34
2023-04-14T14:04:30.931Z,95594.13
2023-04-14T14:06:59.521Z,95591.16
2023-04-14T14:09:27.629Z,95599.47
2023-04-14T14:11:56.077Z,95589.94
2023-04-14T14:14:24.181Z,95585.59
2023-04-14T14:16:52.308Z,95584.59
2023-04-14T14:19:20.383Z,95584.28
2023-04-14T14:21:49.715Z,95587.25
2023-04-14T14:24:17.847Z,95573.97
2023-04-14T14:26:45.915Z,95571.78
2023-04-14T14:29:14.025Z,95568.53
2023-04-14T14:31:42.097Z,95558.53
2023-04-14T14:34:10.220Z,95554.41
2023-04-14T14:36:38.331Z,95565.44
2023-04-14T14:39:09.176Z,95558.41
2023-04-14T14:41:37.459Z,95564.44
2023-04-14T14:44:05.740Z,95565.81
2023-04-14T14:46:34.717Z,95565.66
2023-04-14T14:49:03.177Z,95566.69
2023-04-14T14:51:31.804Z,95563.03
2023-04-14T14:54:09.333Z,95570.84
2023-04-14T14:56:39.611Z,95576.16
2023-04-14T14:59:08.459Z,95574.00
2023-04-14T15:01:36.690Z,95571.19
2023-04-14T15:04:06.366Z,95572.97
2023-04-14T15:06:35.933Z,95569.38
2023-04-14T15:09:05.470Z,95573.34
2023-04-14T15:11:33.384Z,95571.28
2023-04-14T15:14:03.389Z,95577.75
2023-04-14T15:16:31.699Z,95567.31
2023-04-14T15:18:59.630Z,95579.72
2023-04-14T15:21:27.537Z,95578.69
2023-04-14T15:23:55.428Z,95585.81
2023-04-14T15:26:23.362Z,95579.81
2023-04-14T15:28:51.259Z,95579.00
2023-04-14T15:31:20.793Z,95571.94
2023-04-14T15:33:48.921Z,95575.25
2023-04-14T15:36:17.218Z,95587.22
2023-04-14T15:38:46.969Z,95573.63
2023-04-14T15:41:15.523Z,95573.50
2023-04-14T15:43:43.522Z,95573.50
2023-04-14T15:46:13.132Z,95563.59
2023-04-14T15:48:42.618Z,95569.84
2023-04-14T15:51:10.456Z,95571.34
2023-04-14T15:53:38.474Z,95572.81
2023-04-14T15:56:06.858Z,95569.03
2023-04-14T15:58:35.336Z,95560.56
2023-04-14T16:01:07.621Z,95561.25
2023-04-14T16:03:36.251Z,95563.38
2023-04-14T16:06:07.492Z,95565.81
2023-04-14T16:08:36.359Z,95570.63
2023-04-14T16:11:04.317Z,95566.94
2023-04-14T16:13:32.240Z,95563.34
2023-04-14T16:16:00.323Z,95567.56
2023-04-14T16:18:28.341Z,95569.03
2023-04-14T16:20:56.305Z,95569.50
2023-04-14T16:23:25.695Z,95571.09
2023-04-14T16:25:53.695Z,95571.88
2023-04-14T16:28:22.900Z,95570.69
2023-04-14T16:30:51.124Z,95584.59
2023-04-14T16:33:19.117Z,95577.97
2023-04-14T16:35:47.069Z,95577.97
2023-04-14T16:38:15.046Z,95582.88
2023-04-14T16:40:44.749Z,95580.41
2023-04-14T16:43:13.868Z,95581.22
2023-04-14T16:45:42.118Z,95590.13
2023-04-14T16:48:10.542Z,95582.00
2023-04-14T16:50:40.277Z,95585.63
2023-04-14T16:53:08.231Z,95584.94
2023-04-14T16:55:36.203Z,95583.78
2023-04-14T16:58:05.719Z,95582.47
2023-04-14T17:00:33.846Z,95580.09
2023-04-14T17:03:02.370Z,95589.34
2023-04-14T17:05:31.339Z,95576.41
2023-04-14T17:07:59.494Z,95587.00
2023-04-14T17:10:29.712Z,95588.31
2023-04-14T17:12:57.831Z,95587.09
2023-04-14T17:15:27.787Z,95585.88
2023-04-14T17:17:56.035Z,95589.13
2023-04-14T17:20:25.635Z,95595.56
2023-04-14T17:22:54.533Z,95603.50
2023-04-14T17:25:22.652Z,95588.22
2023-04-14T17:27:50.759Z,95587.41
2023-04-14T17:30:19.116Z,95591.16
2023-04-14T17:32:49.346Z,95599.41
2023-04-14T17:35:17.688Z,95598.72
2023-04-14T17:37:45.867Z,95597.66
2023-04-14T17:40:15.979Z,95595.16
2023-04-14T17:42:44.076Z,95601.75
2023-04-14T17:45:13.288Z,95593.41
2023-04-14T17:47:41.753Z,95595.25
2023-04-14T17:50:11.906Z,95593.03
2023-04-14T17:52:40.110Z,95590.03
2023-04-14T17:55:10.313Z,95600.91
2023-04-14T17:57:38.862Z,95596.56
2023-04-14T18:00:09.462Z,95597.19
2023-04-14T18:02:43.350Z,95599.41
2023-04-14T18:05:13.225Z,95600.72
2023-04-14T18:07:42.845Z,95598.34
2023-04-14T18:10:11.180Z,95597.78
2023-04-14T18:12:39.235Z,95599.88
2023-04-14T18:15:08.315Z,95600.88
2023-04-14T18:17:36.462Z,95596.16
2023-04-14T18:20:04.821Z,95597.03
2023-04-14T18:22:34.866Z,95600.66
2023-04-14T18:25:03.271Z,95600.97
2023-04-14T18:30:02.955Z,95608.78
2023-04-14T18:32:31.480Z,95612.66
2023-04-14T18:34:59.812Z,95616.31
2023-04-14T18:37:28.142Z,95615.09
2023-04-14T18:39:57.861Z,95617.28
2023-04-14T18:42:27.390Z,95615.78
2023-04-14T18:44:55.526Z,95612.75
2023-04-14T18:47:23.977Z,95621.78
2023-04-14T18:49:52.392Z,95628.19
2023-04-14T18:52:20.640Z,95627.78
2023-04-14T18:54:49.477Z,95632.50
2023-04-14T18:57:19.217Z,95630.56
2023-04-14T18:59:47.771Z,95634.63
2023-04-14T19:02:16.036Z,95637.13
2023-04-14T19:04:44.964Z,95637.81
2023-04-14T19:07:13.035Z,95648.66
2023-04-14T19:09:41.296Z,95640.47
2023-04-14T19:12:18.434Z,95643.78
2023-04-14T19:14:56.898Z,95637.41
2023-04-14T19:17:25.106Z,95650.16
2023-04-14T19:19:53.164Z,95641.84
2023-04-14T19:22:21.307Z,95645.19
2023-04-14T19:24:51.011Z,95646.41
2023-04-14T19:27:19.401Z,95645.16
2023-04-14T19:29:47.612Z,95650.00
2023-04-14T19:32:17.816Z,95645.97
2023-04-14T19:34:46.083Z,95650.97
2023-04-14T19:37:14.973Z,95654.28
2023-04-14T19:39:43.016Z,95654.25
2023-04-14T19:42:11.309Z,95649.34
2023-04-14T19:44:39.446Z,95649.88
2023-04-14T19:47:07.691Z,95646.41
2023-04-14T19:49:37.592Z,95647.63
2023-04-14T19:52:06.127Z,95655.34
2023-04-14T19:54:34.561Z,95645.34
2023-04-14T19:57:03.485Z,95643.94
2023-04-14T19:59:32.868Z,95644.44
2023-04-14T20:02:01.863Z,95650.97
2023-04-14T20:04:30.077Z,95654.50
2023-04-14T20:06:59.998Z,95652.69
2023-04-14T20:09:28.103Z,95647.38
2023-04-14T20:11:56.085Z,95650.69
2023-04-14T20:14:24.213Z,95657.41
2023-04-14T20:16:52.329Z,95650.63
2023-04-14T20:19:21.154Z,95655.28
2023-04-14T20:21:49.677Z,95652.47
2023-04-14T20:24:19.018Z,95650.78
2023-04-14T20:26:47.254Z,95648.88
2023-04-14T20:29:16.264Z,95649.25
2023-04-14T20:31:44.531Z,95645.81
2023-04-14T20:34:13.412Z,95652.03
2023-04-14T20:36:41.918Z,95642.13
2023-04-14T20:39:09.853Z,95649.69
2023-04-14T20:41:39.249Z,95644.25
2023-04-14T20:44:07.472Z,95653.50
2023-04-14T20:46:35.367Z,95654.56
2023-04-14T20:49:03.757Z,95654.09
2023-04-14T20:51:32.603Z,95652.69
2023-04-14T20:54:01.274Z,95650.19
2023-04-14T20:56:30.762Z,95652.38
2023-04-14T20:59:00.445Z,95648.19
2023-04-14T21:01:28.794Z,95654.66
2023-04-14T21:03:57.270Z,95649.66
2023-04-14T21:06:25.817Z,95652.75
2023-04-14T21:08:53.722Z,95649.69
2023-04-14T21:11:21.909Z,95653.38
2023-04-14T21:15:30.410Z,95654.69
2023-04-14T21:16:35.255Z,95660.22
2023-04-14T21:19:04.335Z,95660.47
2023-04-14T21:21:33.093Z,95654.84
2023-04-14T21:24:01.581Z,95657.13
2023-04-14T21:26:29.550Z,95657.97
2023-04-14T21:28:57.617Z,95653.31
2023-04-14T21:31:25.952Z,95651.91
2023-04-14T21:33:55.610Z,95649.78
2023-04-14T21:36:24.523Z,95650.25
2023-04-14T21:38:52.565Z,95650.59
2023-04-14T21:41:20.971Z,95654.56
2023-04-14T21:43:48.934Z,95659.91
2023-04-14T21:46:17.066Z,95661.00
2023-04-14T21:48:45.068Z,95653.59
2023-04-14T21:51:14.828Z,95652.50
2023-04-14T21:53:42.784Z,95647.13
2023-04-14T21:56:12.832Z,95651.88
2023-04-14T21:58:41.359Z,95642.56
2023-04-14T22:01:10.382Z,95645.69
2023-04-14T22:03:40.599Z,95656.19
2023-04-14T22:06:10.028Z,95658.31
2023-04-14T22:08:40.270Z,95654.03
2023-04-14T22:11:08.711Z,95649.47
2023-04-14T22:13:37.073Z,95658.66
2023-04-14T22:16:05.416Z,95653.53
2023-04-14T22:18:33.518Z,95659.59
2023-04-14T22:21:01.588Z,95651.13
2023-04-14T22:23:29.692Z,95661.97
2023-04-14T22:25:59.074Z,95657.19
2023-04-14T22:28:27.255Z,95666.13
2023-04-14T22:30:55.353Z,95666.34
2023-04-14T22:33:23.383Z,95665.72
2023-04-14T22:35:51.719Z,95667.75
2023-04-14T22:38:19.700Z,95671.56
2023-04-14T22:40:49.289Z,95677.13
2023-04-14T22:43:19.847Z,95670.44
2023-04-14T22:45:48.295Z,95672.47
2023-04-14T22:48:16.470Z,95674.59
2023-04-14T22:50:44.388Z,95678.06
2023-04-14T22:53:12.361Z,95667.09
2023-04-14T22:55:40.534Z,95670.75
2023-04-14T22:58:09.538Z,95670.97
2023-04-14T23:00:38.994Z,95670.25
2023-04-14T23:03:09.788Z,95676.53
2023-04-14T23:05:38.352Z,95676.44
2023-04-14T23:08:06.995Z,95674.16
2023-04-14T23:10:35.056Z,95676.44
2023-04-14T23:13:03.533Z,95678.47
2023-04-14T23:15:31.576Z,95671.16
2023-04-14T23:18:01.670Z,95664.75
2023-04-14T23:20:30.337Z,95670.22
2023-04-14T23:22:58.378Z,95669.72
2023-04-14T23:25:26.722Z,95668.25
2023-04-14T23:27:54.840Z,95673.09
2023-04-14T23:30:22.879Z,95667.03
2023-04-14T23:32:51.014Z,95663.22
2023-04-14T23:35:20.450Z,95664.53
2023-04-14T23:37:48.455Z,95663.94
2023-04-14T23:40:16.636Z,95658.88
2023-04-14T23:42:44.936Z,95661.84
2023-04-14T23:45:12.957Z,95665.75
2023-04-14T23:47:41.447Z,95665.97
2023-04-14T23:50:10.043Z,95653.06
2023-04-14T23:52:39.610Z,95654.28
2023-04-14T23:55:08.229Z,95650.38
2023-04-14T23:57:36.336Z,95649.78
